sensor_id;sensor_type;location;lat;lon;timestamp;temperature;humidity
21302;DHT22;10810;48.270;9.996;2022-09-17T00:01:03;15.40;95.70
21302;DHT22;10810;48.270;9.996;2022-09-17T00:03:32;15.40;95.70
21302;DHT22;10810;48.270;9.996;2022-09-17T00:06:00;15.40;95.70
21302;DHT22;10810;48.270;9.996;2022-09-17T00:08:30;15.40;95.70
21302;DHT22;10810;48.270;9.996;2022-09-17T00:10:57;15.30;95.70
21302;DHT22;10810;48.270;9.996;2022-09-17T00:13:24;15.30;95.70
21302;DHT22;10810;48.270;9.996;2022-09-17T00:15:51;15.30;95.60
21302;DHT22;10810;48.270;9.996;2022-09-17T00:18:18;15.30;95.60
21302;DHT22;10810;48.270;9.996;2022-09-17T00:20:47;15.30;95.60
21302;DHT22;10810;48.270;9.996;2022-09-17T00:23:14;15.30;95.60
21302;DHT22;10810;48.270;9.996;2022-09-17T00:25:42;15.30;95.70
21302;DHT22;10810;48.270;9.996;2022-09-17T00:28:11;15.30;95.60
21302;DHT22;10810;48.270;9.996;2022-09-17T00:30:39;15.20;95.50
21302;DHT22;10810;48.270;9.996;2022-09-17T00:33:07;15.30;95.60
21302;DHT22;10810;48.270;9.996;2022-09-17T00:35:34;15.20;95.50
21302;DHT22;10810;48.270;9.996;2022-09-17T00:38:02;15.20;95.50
21302;DHT22;10810;48.270;9.996;2022-09-17T00:40:29;15.20;95.50
21302;DHT22;10810;48.270;9.996;2022-09-17T00:42:56;15.20;95.40
21302;DHT22;10810;48.270;9.996;2022-09-17T00:45:24;15.20;95.50
21302;DHT22;10810;48.270;9.996;2022-09-17T00:47:57;15.20;95.50
21302;DHT22;10810;48.270;9.996;2022-09-17T00:50:27;15.20;95.50
21302;DHT22;10810;48.270;9.996;2022-09-17T00:52:58;15.20;95.50
21302;DHT22;10810;48.270;9.996;2022-09-17T00:55:32;15.20;95.50
21302;DHT22;10810;48.270;9.996;2022-09-17T00:58:02;15.10;95.50
21302;DHT22;10810;48.270;9.996;2022-09-17T01:00:30;15.10;95.50
21302;DHT22;10810;48.270;9.996;2022-09-17T01:02:57;15.10;95.50
21302;DHT22;10810;48.270;9.996;2022-09-17T01:05:30;15.10;95.40
21302;DHT22;10810;48.270;9.996;2022-09-17T01:08:09;15.10;95.40
21302;DHT22;10810;48.270;9.996;2022-09-17T01:11:00;15.10;95.50
21302;DHT22;10810;48.270;9.996;2022-09-17T01:13:40;15.10;95.40
21302;DHT22;10810;48.270;9.996;2022-09-17T01:16:14;15.10;95.40
21302;DHT22;10810;48.270;9.996;2022-09-17T01:18:54;15.10;95.40
21302;DHT22;10810;48.270;9.996;2022-09-17T01:21:39;15.10;95.40
21302;DHT22;10810;48.270;9.996;2022-09-17T01:24:37;15.10;95.40
21302;DHT22;10810;48.270;9.996;2022-09-17T01:27:32;15.00;95.40
21302;DHT22;10810;48.270;9.996;2022-09-17T01:33:06;15.00;95.50
21302;DHT22;10810;48.270;9.996;2022-09-17T01:35:38;15.00;95.40
21302;DHT22;10810;48.270;9.996;2022-09-17T01:38:12;15.00;95.40
21302;DHT22;10810;48.270;9.996;2022-09-17T01:40:48;15.10;95.40
21302;DHT22;10810;48.270;9.996;2022-09-17T01:43:20;15.00;95.40
21302;DHT22;10810;48.270;9.996;2022-09-17T01:45:50;15.00;95.40
21302;DHT22;10810;48.270;9.996;2022-09-17T01:48:19;15.00;95.40
21302;DHT22;10810;48.270;9.996;2022-09-17T01:50:52;15.00;95.40
21302;DHT22;10810;48.270;9.996;2022-09-17T01:53:24;15.00;95.40
21302;DHT22;10810;48.270;9.996;2022-09-17T01:55:53;15.00;95.40
21302;DHT22;10810;48.270;9.996;2022-09-17T01:58:24;15.00;95.40
21302;DHT22;10810;48.270;9.996;2022-09-17T02:00:57;14.90;95.30
21302;DHT22;10810;48.270;9.996;2022-09-17T02:03:28;15.00;95.40
21302;DHT22;10810;48.270;9.996;2022-09-17T02:05:59;14.90;95.40
21302;DHT22;10810;48.270;9.996;2022-09-17T02:08:33;15.00;95.80
21302;DHT22;10810;48.270;9.996;2022-09-17T02:11:05;15.00;95.50
21302;DHT22;10810;48.270;9.996;2022-09-17T02:13:36;14.90;95.60
21302;DHT22;10810;48.270;9.996;2022-09-17T02:16:06;14.90;95.40
21302;DHT22;10810;48.270;9.996;2022-09-17T02:18:41;14.90;95.40
21302;DHT22;10810;48.270;9.996;2022-09-17T02:21:15;14.90;95.40
21302;DHT22;10810;48.270;9.996;2022-09-17T02:23:49;14.90;95.50
21302;DHT22;10810;48.270;9.996;2022-09-17T02:26:19;14.90;95.40
21302;DHT22;10810;48.270;9.996;2022-09-17T02:28:55;14.90;95.40
21302;DHT22;10810;48.270;9.996;2022-09-17T02:31:23;14.90;95.40
21302;DHT22;10810;48.270;9.996;2022-09-17T02:33:53;14.90;95.40
21302;DHT22;10810;48.270;9.996;2022-09-17T02:36:22;14.90;95.40
21302;DHT22;10810;48.270;9.996;2022-09-17T02:38:57;14.90;95.40
21302;DHT22;10810;48.270;9.996;2022-09-17T02:41:33;14.90;95.40
21302;DHT22;10810;48.270;9.996;2022-09-17T02:44:09;14.90;95.40
21302;DHT22;10810;48.270;9.996;2022-09-17T02:46:51;14.90;95.40
21302;DHT22;10810;48.270;9.996;2022-09-17T02:49:42;14.90;95.40
21302;DHT22;10810;48.270;9.996;2022-09-17T02:52:16;14.90;95.30
21302;DHT22;10810;48.270;9.996;2022-09-17T02:54:55;14.90;95.70
21302;DHT22;10810;48.270;9.996;2022-09-17T02:57:31;14.90;95.40
21302;DHT22;10810;48.270;9.996;2022-09-17T03:00:05;14.90;95.30
21302;DHT22;10810;48.270;9.996;2022-09-17T03:02:37;14.90;95.30
21302;DHT22;10810;48.270;9.996;2022-09-17T03:05:07;14.90;95.40
21302;DHT22;10810;48.270;9.996;2022-09-17T03:07:35;14.90;95.40
21302;DHT22;10810;48.270;9.996;2022-09-17T03:10:04;14.90;95.40
21302;DHT22;10810;48.270;9.996;2022-09-17T03:12:31;14.90;95.40
21302;DHT22;10810;48.270;9.996;2022-09-17T03:14:58;14.80;95.40
21302;DHT22;10810;48.270;9.996;2022-09-17T03:17:25;14.80;95.40
21302;DHT22;10810;48.270;9.996;2022-09-17T03:19:52;14.80;95.40
21302;DHT22;10810;48.270;9.996;2022-09-17T03:22:21;14.80;95.70
21302;DHT22;10810;48.270;9.996;2022-09-17T03:24:48;14.80;95.30
21302;DHT22;10810;48.270;9.996;2022-09-17T03:27:17;14.70;95.50
21302;DHT22;10810;48.270;9.996;2022-09-17T03:29:44;14.70;95.20
21302;DHT22;10810;48.270;9.996;2022-09-17T03:32:11;14.70;95.30
21302;DHT22;10810;48.270;9.996;2022-09-17T03:34:38;14.70;95.30
21302;DHT22;10810;48.270;9.996;2022-09-17T03:37:05;14.70;95.20
21302;DHT22;10810;48.270;9.996;2022-09-17T03:39:34;14.70;95.20
21302;DHT22;10810;48.270;9.996;2022-09-17T03:42:01;14.70;95.20
21302;DHT22;10810;48.270;9.996;2022-09-17T03:44:28;14.70;95.30
21302;DHT22;10810;48.270;9.996;2022-09-17T03:46:55;14.70;95.30
21302;DHT22;10810;48.270;9.996;2022-09-17T03:49:22;14.70;95.20
21302;DHT22;10810;48.270;9.996;2022-09-17T03:51:49;14.70;95.20
21302;DHT22;10810;48.270;9.996;2022-09-17T03:54:17;14.70;95.20
21302;DHT22;10810;48.270;9.996;2022-09-17T03:56:45;14.60;95.20
21302;DHT22;10810;48.270;9.996;2022-09-17T03:59:12;14.70;95.30
21302;DHT22;10810;48.270;9.996;2022-09-17T04:01:41;14.60;95.20
21302;DHT22;10810;48.270;9.996;2022-09-17T04:04:08;14.60;95.30
21302;DHT22;10810;48.270;9.996;2022-09-17T04:06:37;14.60;95.40
21302;DHT22;10810;48.270;9.996;2022-09-17T04:09:04;14.60;95.40
21302;DHT22;10810;48.270;9.996;2022-09-17T04:11:31;14.60;95.30
21302;DHT22;10810;48.270;9.996;2022-09-17T04:14:00;14.60;95.30
21302;DHT22;10810;48.270;9.996;2022-09-17T04:16:27;14.60;95.20
21302;DHT22;10810;48.270;9.996;2022-09-17T04:18:54;14.50;95.20
21302;DHT22;10810;48.270;9.996;2022-09-17T04:21:21;14.50;95.20
21302;DHT22;10810;48.270;9.996;2022-09-17T04:23:50;14.50;95.20
21302;DHT22;10810;48.270;9.996;2022-09-17T04:26:18;14.50;95.40
21302;DHT22;10810;48.270;9.996;2022-09-17T04:28:45;14.50;95.20
21302;DHT22;10810;48.270;9.996;2022-09-17T04:31:13;14.50;95.10
21302;DHT22;10810;48.270;9.996;2022-09-17T04:33:40;14.50;95.20
21302;DHT22;10810;48.270;9.996;2022-09-17T04:36:07;14.50;95.10
21302;DHT22;10810;48.270;9.996;2022-09-17T04:38:34;14.50;95.00
21302;DHT22;10810;48.270;9.996;2022-09-17T04:41:01;14.40;94.90
21302;DHT22;10810;48.270;9.996;2022-09-17T04:43:28;14.50;94.80
21302;DHT22;10810;48.270;9.996;2022-09-17T04:45:55;14.40;94.80
21302;DHT22;10810;48.270;9.996;2022-09-17T04:48:24;14.40;94.80
21302;DHT22;10810;48.270;9.996;2022-09-17T04:50:51;14.40;94.80
21302;DHT22;10810;48.270;9.996;2022-09-17T04:53:30;14.40;94.90
21302;DHT22;10810;48.270;9.996;2022-09-17T04:55:57;14.40;94.80
21302;DHT22;10810;48.270;9.996;2022-09-17T04:58:24;14.40;94.90
21302;DHT22;10810;48.270;9.996;2022-09-17T05:00:51;14.40;94.70
21302;DHT22;10810;48.270;9.996;2022-09-17T05:03:18;14.40;94.80
21302;DHT22;10810;48.270;9.996;2022-09-17T05:05:49;14.40;94.90
21302;DHT22;10810;48.270;9.996;2022-09-17T05:08:16;14.40;95.00
21302;DHT22;10810;48.270;9.996;2022-09-17T05:10:43;14.30;94.90
21302;DHT22;10810;48.270;9.996;2022-09-17T05:13:10;14.30;94.90
21302;DHT22;10810;48.270;9.996;2022-09-17T05:15:37;14.30;95.00
21302;DHT22;10810;48.270;9.996;2022-09-17T05:18:04;14.30;95.00
21302;DHT22;10810;48.270;9.996;2022-09-17T05:20:31;14.30;95.10
21302;DHT22;10810;48.270;9.996;2022-09-17T05:23:00;14.30;95.00
21302;DHT22;10810;48.270;9.996;2022-09-17T05:25:27;14.30;95.00
21302;DHT22;10810;48.270;9.996;2022-09-17T05:27:54;14.30;95.00
21302;DHT22;10810;48.270;9.996;2022-09-17T05:30:21;14.30;95.00
21302;DHT22;10810;48.270;9.996;2022-09-17T05:32:54;14.30;95.00
21302;DHT22;10810;48.270;9.996;2022-09-17T05:35:23;14.20;95.10
21302;DHT22;10810;48.270;9.996;2022-09-17T05:37:52;14.20;95.00
21302;DHT22;10810;48.270;9.996;2022-09-17T05:40:23;14.20;95.00
21302;DHT22;10810;48.270;9.996;2022-09-17T05:42:50;14.20;95.00
21302;DHT22;10810;48.270;9.996;2022-09-17T05:45:18;14.20;95.10
21302;DHT22;10810;48.270;9.996;2022-09-17T05:47:45;14.20;95.00
21302;DHT22;10810;48.270;9.996;2022-09-17T05:50:12;14.20;95.00
21302;DHT22;10810;48.270;9.996;2022-09-17T05:52:39;14.20;95.00
21302;DHT22;10810;48.270;9.996;2022-09-17T05:55:06;14.20;95.00
21302;DHT22;10810;48.270;9.996;2022-09-17T05:57:38;14.20;95.10
21302;DHT22;10810;48.270;9.996;2022-09-17T06:00:08;14.20;95.10
21302;DHT22;10810;48.270;9.996;2022-09-17T06:02:36;14.20;95.10
21302;DHT22;10810;48.270;9.996;2022-09-17T06:05:04;14.20;95.30
21302;DHT22;10810;48.270;9.996;2022-09-17T06:07:33;14.20;95.20
21302;DHT22;10810;48.270;9.996;2022-09-17T06:10:00;14.20;95.10
21302;DHT22;10810;48.270;9.996;2022-09-17T06:12:27;14.20;95.10
21302;DHT22;10810;48.270;9.996;2022-09-17T06:14:55;14.20;95.20
21302;DHT22;10810;48.270;9.996;2022-09-17T06:17:23;14.10;95.20
21302;DHT22;10810;48.270;9.996;2022-09-17T06:19:50;14.10;95.20
21302;DHT22;10810;48.270;9.996;2022-09-17T06:22:17;14.10;95.20
21302;DHT22;10810;48.270;9.996;2022-09-17T06:24:45;14.10;95.20
21302;DHT22;10810;48.270;9.996;2022-09-17T06:27:12;14.10;95.30
21302;DHT22;10810;48.270;9.996;2022-09-17T06:29:39;14.10;95.30
21302;DHT22;10810;48.270;9.996;2022-09-17T06:42:15;14.10;95.60
21302;DHT22;10810;48.270;9.996;2022-09-17T06:51:49;14.10;95.50
21302;DHT22;10810;48.270;9.996;2022-09-17T06:54:26;14.10;95.80
21302;DHT22;10810;48.270;9.996;2022-09-17T06:56:58;14.10;95.90
21302;DHT22;10810;48.270;9.996;2022-09-17T06:59:52;14.10;95.90
21302;DHT22;10810;48.270;9.996;2022-09-17T07:02:30;14.10;95.70
21302;DHT22;10810;48.270;9.996;2022-09-17T07:04:57;14.10;95.70
21302;DHT22;10810;48.270;9.996;2022-09-17T07:07:27;14.10;95.70
21302;DHT22;10810;48.270;9.996;2022-09-17T07:10:03;14.10;95.90
21302;DHT22;10810;48.270;9.996;2022-09-17T07:12:33;14.10;95.60
21302;DHT22;10810;48.270;9.996;2022-09-17T07:15:00;14.10;95.70
21302;DHT22;10810;48.270;9.996;2022-09-17T07:17:28;14.10;95.70
21302;DHT22;10810;48.270;9.996;2022-09-17T07:23:19;14.10;95.60
21302;DHT22;10810;48.270;9.996;2022-09-17T07:26:17;14.10;95.70
21302;DHT22;10810;48.270;9.996;2022-09-17T07:28:45;14.10;95.90
21302;DHT22;10810;48.270;9.996;2022-09-17T07:31:19;14.10;95.80
21302;DHT22;10810;48.270;9.996;2022-09-17T07:37:11;14.10;95.90
21302;DHT22;10810;48.270;9.996;2022-09-17T07:40:07;14.10;95.80
21302;DHT22;10810;48.270;9.996;2022-09-17T07:42:38;14.00;95.70
21302;DHT22;10810;48.270;9.996;2022-09-17T07:45:06;14.10;95.60
21302;DHT22;10810;48.270;9.996;2022-09-17T07:47:37;14.10;95.70
21302;DHT22;10810;48.270;9.996;2022-09-17T07:50:11;14.10;95.70
21302;DHT22;10810;48.270;9.996;2022-09-17T07:53:27;14.10;95.70
21302;DHT22;10810;48.270;9.996;2022-09-17T07:56:11;14.10;95.60
21302;DHT22;10810;48.270;9.996;2022-09-17T07:59:05;14.10;95.70
21302;DHT22;10810;48.270;9.996;2022-09-17T08:02:29;14.00;95.10
21302;DHT22;10810;48.270;9.996;2022-09-17T08:05:08;13.90;95.10
21302;DHT22;10810;48.270;9.996;2022-09-17T08:11:26;13.70;95.70
21302;DHT22;10810;48.270;9.996;2022-09-17T08:14:38;13.80;95.80
21302;DHT22;10810;48.270;9.996;2022-09-17T09:29:14;13.90;94.10
21302;DHT22;10810;48.270;9.996;2022-09-17T09:32:28;13.80;94.60
21302;DHT22;10810;48.270;9.996;2022-09-17T09:38:20;13.70;95.00
21302;DHT22;10810;48.270;9.996;2022-09-17T09:41:24;13.70;96.00
21302;DHT22;10810;48.270;9.996;2022-09-17T09:54:57;13.90;97.60
21302;DHT22;10810;48.270;9.996;2022-09-17T10:04:56;14.10;97.60
21302;DHT22;10810;48.270;9.996;2022-09-17T10:24:33;14.60;96.60
21302;DHT22;10810;48.270;9.996;2022-09-17T10:38:25;14.60;96.20
21302;DHT22;10810;48.270;9.996;2022-09-17T10:40:51;14.80;96.40
21302;DHT22;10810;48.270;9.996;2022-09-17T10:43:21;14.70;96.30
21302;DHT22;10810;48.270;9.996;2022-09-17T10:46:24;14.70;96.20
21302;DHT22;10810;48.270;9.996;2022-09-17T10:56:09;14.80;96.30
21302;DHT22;10810;48.270;9.996;2022-09-17T11:06:18;14.70;95.20
21302;DHT22;10810;48.270;9.996;2022-09-17T11:10:27;14.70;95.90
21302;DHT22;10810;48.270;9.996;2022-09-17T11:15:32;14.60;95.40
21302;DHT22;10810;48.270;9.996;2022-09-17T11:31:55;14.70;94.40
21302;DHT22;10810;48.270;9.996;2022-09-17T11:35:25;14.40;94.50
21302;DHT22;10810;48.270;9.996;2022-09-17T11:38:26;14.40;94.60
21302;DHT22;10810;48.270;9.996;2022-09-17T11:45:28;14.40;94.70
21302;DHT22;10810;48.270;9.996;2022-09-17T11:47:26;14.40;94.60
21302;DHT22;10810;48.270;9.996;2022-09-17T11:57:34;14.40;94.60
21302;DHT22;10810;48.270;9.996;2022-09-17T12:03:33;14.70;94.60
21302;DHT22;10810;48.270;9.996;2022-09-17T12:06:38;14.60;94.50
21302;DHT22;10810;48.270;9.996;2022-09-17T12:09:25;14.80;94.50
21302;DHT22;10810;48.270;9.996;2022-09-17T12:12:27;14.90;94.30
21302;DHT22;10810;48.270;9.996;2022-09-17T12:16:07;14.90;94.30
21302;DHT22;10810;48.270;9.996;2022-09-17T12:18:51;14.90;94.30
21302;DHT22;10810;48.270;9.996;2022-09-17T12:21:30;15.10;94.30
21302;DHT22;10810;48.270;9.996;2022-09-17T12:27:16;15.20;94.30
21302;DHT22;10810;48.270;9.996;2022-09-17T12:30:46;15.20;94.10
21302;DHT22;10810;48.270;9.996;2022-09-17T12:33:14;15.60;93.80
21302;DHT22;10810;48.270;9.996;2022-09-17T12:36:08;15.40;93.80
21302;DHT22;10810;48.270;9.996;2022-09-17T12:45:19;15.40;93.60
21302;DHT22;10810;48.270;9.996;2022-09-17T13:02:18;15.70;93.00
21302;DHT22;10810;48.270;9.996;2022-09-17T13:13:41;15.80;92.10
21302;DHT22;10810;48.270;9.996;2022-09-17T13:31:45;15.90;91.60
21302;DHT22;10810;48.270;9.996;2022-09-17T14:38:22;16.10;87.00
21302;DHT22;10810;48.270;9.996;2022-09-17T14:41:02;16.10;86.90
21302;DHT22;10810;48.270;9.996;2022-09-17T14:44:58;16.00;86.80
21302;DHT22;10810;48.270;9.996;2022-09-17T15:04:09;15.60;89.40
21302;DHT22;10810;48.270;9.996;2022-09-17T15:07:06;15.60;90.00
21302;DHT22;10810;48.270;9.996;2022-09-17T15:10:17;15.60;90.30
21302;DHT22;10810;48.270;9.996;2022-09-17T15:17:20;15.60;90.60
21302;DHT22;10810;48.270;9.996;2022-09-17T15:20:18;15.60;90.70
21302;DHT22;10810;48.270;9.996;2022-09-17T15:23:07;15.60;90.90
21302;DHT22;10810;48.270;9.996;2022-09-17T15:25:51;15.60;91.00
21302;DHT22;10810;48.270;9.996;2022-09-17T15:29:17;15.50;91.10
21302;DHT22;10810;48.270;9.996;2022-09-17T15:38:51;15.60;91.40
21302;DHT22;10810;48.270;9.996;2022-09-17T15:50:30;15.60;92.00
21302;DHT22;10810;48.270;9.996;2022-09-17T15:51:57;15.60;92.00
21302;DHT22;10810;48.270;9.996;2022-09-17T16:02:58;15.60;92.10
21302;DHT22;10810;48.270;9.996;2022-09-17T16:06:34;15.60;92.20
21302;DHT22;10810;48.270;9.996;2022-09-17T16:13:23;15.10;92.30
21302;DHT22;10810;48.270;9.996;2022-09-17T16:16:39;15.60;92.50
21302;DHT22;10810;48.270;9.996;2022-09-17T16:21:49;15.60;92.80
21302;DHT22;10810;48.270;9.996;2022-09-17T16:23:27;15.60;92.70
21302;DHT22;10810;48.270;9.996;2022-09-17T16:29:30;15.50;92.40
21302;DHT22;10810;48.270;9.996;2022-09-17T16:32:24;15.50;92.30
21302;DHT22;10810;48.270;9.996;2022-09-17T16:59:13;15.40;92.20
21302;DHT22;10810;48.270;9.996;2022-09-17T17:02:07;15.40;92.40
21302;DHT22;10810;48.270;9.996;2022-09-17T17:08:03;15.40;92.20
21302;DHT22;10810;48.270;9.996;2022-09-17T17:14:18;15.40;92.30
21302;DHT22;10810;48.270;9.996;2022-09-17T17:17:20;15.40;92.20
21302;DHT22;10810;48.270;9.996;2022-09-17T17:22:04;15.30;92.10
21302;DHT22;10810;48.270;9.996;2022-09-17T17:23:34;15.30;92.10
21302;DHT22;10810;48.270;9.996;2022-09-17T17:26:19;15.30;92.30
21302;DHT22;10810;48.270;9.996;2022-09-17T17:28:47;15.50;92.30
21302;DHT22;10810;48.270;9.996;2022-09-17T17:31:25;15.30;92.10
21302;DHT22;10810;48.270;9.996;2022-09-17T17:34:28;15.30;92.10
21302;DHT22;10810;48.270;9.996;2022-09-17T17:40:42;15.20;92.10
21302;DHT22;10810;48.270;9.996;2022-09-17T17:43:29;15.20;91.90
21302;DHT22;10810;48.270;9.996;2022-09-17T17:46:11;15.20;92.10
21302;DHT22;10810;48.270;9.996;2022-09-17T17:48:56;15.20;91.90
21302;DHT22;10810;48.270;9.996;2022-09-17T17:51:36;15.00;91.80
21302;DHT22;10810;48.270;9.996;2022-09-17T17:54:03;15.20;91.90
21302;DHT22;10810;48.270;9.996;2022-09-17T17:56:53;15.20;91.90
21302;DHT22;10810;48.270;9.996;2022-09-17T17:59:27;15.20;92.10
21302;DHT22;10810;48.270;9.996;2022-09-17T18:02:03;15.20;92.00
21302;DHT22;10810;48.270;9.996;2022-09-17T18:04:36;15.20;92.00
21302;DHT22;10810;48.270;9.996;2022-09-17T18:07:03;15.10;91.90
21302;DHT22;10810;48.270;9.996;2022-09-17T18:09:35;15.10;91.90
21302;DHT22;10810;48.270;9.996;2022-09-17T18:12:16;15.10;92.00
21302;DHT22;10810;48.270;9.996;2022-09-17T18:14:59;15.10;91.80
21302;DHT22;10810;48.270;9.996;2022-09-17T18:17:27;15.10;91.90
21302;DHT22;10810;48.270;9.996;2022-09-17T18:26:56;15.00;91.80
21302;DHT22;10810;48.270;9.996;2022-09-17T18:33:04;15.00;91.80
21302;DHT22;10810;48.270;9.996;2022-09-17T18:42:05;14.90;91.60
21302;DHT22;10810;48.270;9.996;2022-09-17T18:44:35;14.90;91.60
21302;DHT22;10810;48.270;9.996;2022-09-17T18:47:05;14.90;91.70
21302;DHT22;10810;48.270;9.996;2022-09-17T18:53:43;14.90;91.80
21302;DHT22;10810;48.270;9.996;2022-09-17T18:58:00;14.80;91.80
21302;DHT22;10810;48.270;9.996;2022-09-17T18:59:42;14.80;91.70
21302;DHT22;10810;48.270;9.996;2022-09-17T19:03:08;14.80;91.50
21302;DHT22;10810;48.270;9.996;2022-09-17T19:09:00;14.80;91.80
21302;DHT22;10810;48.270;9.996;2022-09-17T19:11:41;14.80;91.80
21302;DHT22;10810;48.270;9.996;2022-09-17T19:14:10;14.80;91.70
21302;DHT22;10810;48.270;9.996;2022-09-17T19:16:56;14.80;92.10
21302;DHT22;10810;48.270;9.996;2022-09-17T19:19:53;14.80;91.80
21302;DHT22;10810;48.270;9.996;2022-09-17T19:26:17;14.70;91.80
21302;DHT22;10810;48.270;9.996;2022-09-17T19:32:25;14.70;91.90
21302;DHT22;10810;48.270;9.996;2022-09-17T19:35:29;14.70;92.10
21302;DHT22;10810;48.270;9.996;2022-09-17T19:38:11;14.70;92.20
21302;DHT22;10810;48.270;9.996;2022-09-17T19:41:10;14.70;92.10
21302;DHT22;10810;48.270;9.996;2022-09-17T19:43:49;14.70;92.10
21302;DHT22;10810;48.270;9.996;2022-09-17T19:47:07;14.60;92.30
21302;DHT22;10810;48.270;9.996;2022-09-17T19:55:54;14.60;92.40
21302;DHT22;10810;48.270;9.996;2022-09-17T19:58:21;14.60;92.20
21302;DHT22;10810;48.270;9.996;2022-09-17T20:00:57;14.60;92.40
21302;DHT22;10810;48.270;9.996;2022-09-17T20:03:38;14.60;92.60
21302;DHT22;10810;48.270;9.996;2022-09-17T20:06:12;14.60;92.50
21302;DHT22;10810;48.270;9.996;2022-09-17T20:08:44;14.60;92.70
21302;DHT22;10810;48.270;9.996;2022-09-17T20:12:56;14.60;92.50
21302;DHT22;10810;48.270;9.996;2022-09-17T20:14:19;14.60;92.70
21302;DHT22;10810;48.270;9.996;2022-09-17T20:16:47;14.60;92.80
21302;DHT22;10810;48.270;9.996;2022-09-17T20:19:21;14.60;92.70
21302;DHT22;10810;48.270;9.996;2022-09-17T20:21:57;14.60;92.80
21302;DHT22;10810;48.270;9.996;2022-09-17T20:24:29;14.60;92.60
21302;DHT22;10810;48.270;9.996;2022-09-17T20:27:10;14.50;92.70
21302;DHT22;10810;48.270;9.996;2022-09-17T20:29:46;14.50;92.90
21302;DHT22;10810;48.270;9.996;2022-09-17T20:32:33;14.50;92.90
21302;DHT22;10810;48.270;9.996;2022-09-17T20:35:03;14.50;92.90
21302;DHT22;10810;48.270;9.996;2022-09-17T20:39:18;14.50;92.80
21302;DHT22;10810;48.270;9.996;2022-09-17T20:40:31;14.50;93.10
21302;DHT22;10810;48.270;9.996;2022-09-17T20:43:10;14.50;93.10
21302;DHT22;10810;48.270;9.996;2022-09-17T20:45:39;14.50;92.90
21302;DHT22;10810;48.270;9.996;2022-09-17T20:48:30;14.40;93.00
21302;DHT22;10810;48.270;9.996;2022-09-17T20:51:21;14.40;93.10
21302;DHT22;10810;48.270;9.996;2022-09-17T20:54:24;14.40;93.20
21302;DHT22;10810;48.270;9.996;2022-09-17T20:57:06;14.40;93.00
21302;DHT22;10810;48.270;9.996;2022-09-17T20:59:50;14.30;92.70
21302;DHT22;10810;48.270;9.996;2022-09-17T21:02:35;14.30;92.50
21302;DHT22;10810;48.270;9.996;2022-09-17T21:05:23;14.30;92.60
21302;DHT22;10810;48.270;9.996;2022-09-17T21:08:02;14.20;92.80
21302;DHT22;10810;48.270;9.996;2022-09-17T21:11:25;14.20;93.00
21302;DHT22;10810;48.270;9.996;2022-09-17T21:13:59;14.20;93.10
21302;DHT22;10810;48.270;9.996;2022-09-17T21:16:42;14.20;92.90
21302;DHT22;10810;48.270;9.996;2022-09-17T21:19:20;14.20;93.20
21302;DHT22;10810;48.270;9.996;2022-09-17T21:21:57;14.20;93.00
21302;DHT22;10810;48.270;9.996;2022-09-17T21:24:25;14.20;93.30
21302;DHT22;10810;48.270;9.996;2022-09-17T21:29:47;14.20;93.20
21302;DHT22;10810;48.270;9.996;2022-09-17T21:32:16;14.20;93.20
21302;DHT22;10810;48.270;9.996;2022-09-17T21:34:52;14.20;93.00
21302;DHT22;10810;48.270;9.996;2022-09-17T21:37:21;13.70;92.80
21302;DHT22;10810;48.270;9.996;2022-09-17T21:39:50;14.20;93.10
21302;DHT22;10810;48.270;9.996;2022-09-17T21:42:31;14.20;93.10
21302;DHT22;10810;48.270;9.996;2022-09-17T21:45:02;14.20;93.30
21302;DHT22;10810;48.270;9.996;2022-09-17T21:47:45;14.10;93.00
21302;DHT22;10810;48.270;9.996;2022-09-17T21:50:44;14.00;93.20
21302;DHT22;10810;48.270;9.996;2022-09-17T21:53:17;14.10;93.30
21302;DHT22;10810;48.270;9.996;2022-09-17T21:56:02;13.90;92.90
21302;DHT22;10810;48.270;9.996;2022-09-17T21:58:37;14.30;93.00
21302;DHT22;10810;48.270;9.996;2022-09-17T22:01:11;14.10;93.10
21302;DHT22;10810;48.270;9.996;2022-09-17T22:03:40;14.10;93.00
21302;DHT22;10810;48.270;9.996;2022-09-17T22:06:12;14.10;93.00
21302;DHT22;10810;48.270;9.996;2022-09-17T22:08:44;14.10;92.90
21302;DHT22;10810;48.270;9.996;2022-09-17T22:11:15;14.10;93.00
21302;DHT22;10810;48.270;9.996;2022-09-17T22:14:04;14.10;92.90
21302;DHT22;10810;48.270;9.996;2022-09-17T22:16:39;14.10;92.90
21302;DHT22;10810;48.270;9.996;2022-09-17T22:19:08;14.10;92.70
21302;DHT22;10810;48.270;9.996;2022-09-17T22:21:41;14.10;92.90
21302;DHT22;10810;48.270;9.996;2022-09-17T22:24:23;14.00;92.90
21302;DHT22;10810;48.270;9.996;2022-09-17T22:27:06;14.00;92.90
21302;DHT22;10810;48.270;9.996;2022-09-17T22:30:08;14.00;92.60
21302;DHT22;10810;48.270;9.996;2022-09-17T22:32:56;14.00;92.70
21302;DHT22;10810;48.270;9.996;2022-09-17T22:35:25;14.00;92.60
21302;DHT22;10810;48.270;9.996;2022-09-17T22:38:01;14.00;92.70
21302;DHT22;10810;48.270;9.996;2022-09-17T22:40:40;14.00;92.60
21302;DHT22;10810;48.270;9.996;2022-09-17T22:43:14;14.00;92.50
21302;DHT22;10810;48.270;9.996;2022-09-17T22:45:45;14.00;92.60
21302;DHT22;10810;48.270;9.996;2022-09-17T22:48:33;14.00;92.60
21302;DHT22;10810;48.270;9.996;2022-09-17T22:51:06;14.00;92.60
21302;DHT22;10810;48.270;9.996;2022-09-17T22:53:36;14.00;92.60
21302;DHT22;10810;48.270;9.996;2022-09-17T22:56:10;14.00;92.40
21302;DHT22;10810;48.270;9.996;2022-09-17T22:59:20;13.90;92.60
21302;DHT22;10810;48.270;9.996;2022-09-17T23:01:37;13.90;92.60
21302;DHT22;10810;48.270;9.996;2022-09-17T23:04:23;13.90;92.60
21302;DHT22;10810;48.270;9.996;2022-09-17T23:07:01;13.90;92.70
21302;DHT22;10810;48.270;9.996;2022-09-17T23:09:46;13.90;92.70
21302;DHT22;10810;48.270;9.996;2022-09-17T23:12:29;13.90;92.70
21302;DHT22;10810;48.270;9.996;2022-09-17T23:15:02;13.90;92.70
21302;DHT22;10810;48.270;9.996;2022-09-17T23:17:37;13.90;92.80
21302;DHT22;10810;48.270;9.996;2022-09-17T23:20:31;13.20;92.50
21302;DHT22;10810;48.270;9.996;2022-09-17T23:23:26;13.80;92.50
21302;DHT22;10810;48.270;9.996;2022-09-17T23:29:17;13.80;92.70
21302;DHT22;10810;48.270;9.996;2022-09-17T23:31:45;13.80;92.70
21302;DHT22;10810;48.270;9.996;2022-09-17T23:34:45;13.80;92.70
21302;DHT22;10810;48.270;9.996;2022-09-17T23:37:36;13.80;92.90
21302;DHT22;10810;48.270;9.996;2022-09-17T23:40:07;13.80;92.70
21302;DHT22;10810;48.270;9.996;2022-09-17T23:42:41;14.50;93.00
21302;DHT22;10810;48.270;9.996;2022-09-17T23:45:21;13.70;93.00
21302;DHT22;10810;48.270;9.996;2022-09-17T23:48:25;13.70;93.00
21302;DHT22;10810;48.270;9.996;2022-09-17T23:50:58;13.70;92.90
21302;DHT22;10810;48.270;9.996;2022-09-17T23:53:30;13.70;93.10
21302;DHT22;10810;48.270;9.996;2022-09-17T23:56:09;13.70;93.10
21302;DHT22;10810;48.270;9.996;2022-09-17T23:58:57;13.70;93.10
